Time;durP1;ratioP1;P1;durP2;ratioP2;P2;SDS_P1;SDS_P2;PMS_P1;PMS_P2;Temp;Humidity;BMP_temperature;BMP_pressure;BME280_temperature;BME280_humidity;BME280_pressure;Samples;Min_cycle;Max_cycle;Signal;HPM_P1;HPM_P2
2022/09/02 00:00:51;;;;;;;3.05;1.92;;;18.00;93.70;;;;;;5051266;28;20389;-25
2022/09/02 00:03:19;;;;;;;4.93;2.10;;;18.00;93.70;;;;;;5051637;28;20017;-26
2022/09/02 00:05:45;;;;;;;3.53;2.10;;;18.00;93.80;;;;;;5051358;28;20024;-26
2022/09/02 00:08:11;;;;;;;7.65;2.33;;;17.90;93.80;;;;;;5051733;28;20029;-26
2022/09/02 00:10:41;;;;;;;10.38;2.15;;;17.90;93.90;;;;;;5051069;28;20202;-26
2022/09/02 00:13:10;;;;;;;2.95;1.88;;;17.90;93.90;;;;;;5051555;28;20028;-25
2022/09/02 00:15:36;;;;;;;8.25;2.22;;;17.90;93.90;;;;;;5051108;28;20049;-26
2022/09/02 00:18:03;;;;;;;3.55;2.00;;;17.90;93.90;;;;;;5051335;28;20063;-26
2022/09/02 00:20:29;;;;;;;2.55;2.10;;;17.90;93.90;;;;;;5051073;28;20497;-26
2022/09/02 00:22:56;;;;;;;7.85;2.65;;;17.90;93.90;;;;;;5051360;28;20025;-26
2022/09/02 00:25:22;;;;;;;4.57;2.30;;;17.90;93.90;;;;;;5054535;28;20505;-26
2022/09/02 00:27:48;;;;;;;3.58;2.20;;;17.80;94.00;;;;;;5054711;28;20028;-26
2022/09/02 00:30:13;;;;;;;4.45;2.40;;;17.70;94.00;;;;;;5054483;28;20090;-26
2022/09/02 00:32:39;;;;;;;4.30;2.47;;;17.70;94.00;;;;;;5054677;28;20029;-25
2022/09/02 00:35:06;;;;;;;3.55;2.17;;;17.70;94.00;;;;;;5054579;28;20021;-26
2022/09/02 00:37:31;;;;;;;4.68;2.30;;;17.60;93.90;;;;;;5054423;28;20409;-26
2022/09/02 00:39:57;;;;;;;3.90;2.10;;;17.70;93.80;;;;;;5054333;28;20025;-26
2022/09/02 00:42:24;;;;;;;2.13;1.88;;;17.70;93.80;;;;;;5054563;28;20029;-26
2022/09/02 00:44:51;;;;;;;3.03;2.10;;;17.60;93.70;;;;;;5054427;28;20025;-27
2022/09/02 00:47:17;;;;;;;3.15;2.08;;;17.70;93.70;;;;;;5054615;28;20124;-26
2022/09/02 00:49:50;;;;;;;2.55;2.13;;;17.60;93.80;;;;;;5054706;28;20109;-25
2022/09/02 00:52:32;;;;;;;4.55;2.13;;;17.50;93.80;;;;;;5054147;28;20028;-26
2022/09/02 00:55:05;;;;;;;7.10;2.50;;;17.50;93.90;;;;;;5054207;28;20106;-26
2022/09/02 00:57:36;;;;;;;2.60;2.05;;;17.50;93.90;;;;;;5054075;28;20108;-25
2022/09/02 01:00:19;;;;;;;6.85;2.47;;;17.50;93.90;;;;;;5036111;28;20025;-25
2022/09/02 01:02:53;;;;;;;4.28;2.05;;;17.40;93.80;;;;;;5036158;28;20024;-26
2022/09/02 01:05:20;;;;;;;5.88;2.20;;;17.40;93.80;;;;;;5054043;28;20037;-26
2022/09/02 01:07:46;;;;;;;4.43;2.15;;;17.30;93.80;;;;;;5054049;28;20025;-26
2022/09/02 01:10:23;;;;;;;8.60;2.55;;;17.30;93.90;;;;;;5035814;28;20577;-25
2022/09/02 01:12:53;;;;;;;4.55;2.10;;;17.30;93.80;;;;;;5054200;28;20391;-25
2022/09/02 01:15:18;;;;;;;4.13;2.08;;;17.30;93.70;;;;;;5053670;28;20021;-26
2022/09/02 01:17:48;;;;;;;3.05;2.13;;;17.30;93.60;;;;;;5053813;28;20031;-26
2022/09/02 01:20:17;;;;;;;6.07;2.10;;;17.20;93.70;;;;;;5053500;28;20452;-26
2022/09/02 01:22:44;;;;;;;4.90;2.10;;;17.20;93.70;;;;;;5053713;28;20029;-26
2022/09/02 01:25:16;;;;;;;7.68;2.30;;;17.20;93.60;;;;;;5053776;28;20032;-25
2022/09/02 01:27:42;;;;;;;4.18;1.92;;;17.10;93.80;;;;;;5053391;28;20083;-25
2022/09/02 01:30:12;;;;;;;4.65;2.03;;;17.00;93.80;;;;;;5053630;28;20107;-25
2022/09/02 01:32:38;;;;;;;3.38;2.08;;;17.00;93.90;;;;;;5053548;28;20028;-26
2022/09/02 01:35:05;;;;;;;3.28;2.08;;;17.00;93.90;;;;;;5052477;28;20025;-26
2022/09/02 01:37:31;;;;;;;3.80;2.05;;;17.00;93.90;;;;;;5053405;28;20472;-26
2022/09/02 01:39:58;;;;;;;2.75;2.00;;;16.90;93.90;;;;;;5053382;28;20083;-25
2022/09/02 01:42:24;;;;;;;4.15;2.15;;;16.90;93.90;;;;;;5053487;28;20508;-25
2022/09/02 01:44:50;;;;;;;4.75;1.65;;;16.90;93.90;;;;;;5053330;28;20057;-26
2022/09/02 01:47:20;;;;;;;5.57;2.20;;;17.00;93.90;;;;;;5053098;28;20056;-27
2022/09/02 01:49:47;;;;;;;5.22;2.13;;;16.90;93.90;;;;;;5053122;28;20029;-26
2022/09/02 01:52:14;;;;;;;3.33;1.90;;;16.90;93.90;;;;;;5053121;28;20059;-26
2022/09/02 01:54:43;;;;;;;3.75;1.90;;;16.90;93.90;;;;;;5052951;28;20064;-27
2022/09/02 01:57:09;;;;;;;3.92;1.80;;;16.90;93.80;;;;;;5052997;28;20104;-26
2022/09/02 01:59:36;;;;;;;2.40;2.10;;;16.90;93.80;;;;;;5052994;28;20021;-26
2022/09/02 02:02:02;;;;;;;4.03;1.90;;;16.90;93.70;;;;;;5053124;28;20025;-26
2022/09/02 02:04:27;;;;;;;2.60;2.25;;;16.80;93.80;;;;;;5053058;28;20021;-26
2022/09/02 02:06:53;;;;;;;4.43;2.15;;;16.80;93.80;;;;;;5052855;28;20470;-26
2022/09/02 02:09:19;;;;;;;2.83;2.28;;;16.80;93.80;;;;;;5052603;28;20053;-25
2022/09/02 02:11:46;;;;;;;3.83;1.95;;;16.80;93.80;;;;;;5052638;28;20029;-25
2022/09/02 02:14:12;;;;;;;4.43;2.20;;;16.80;93.60;;;;;;5052784;28;20552;-26
2022/09/02 02:16:38;;;;;;;4.15;2.00;;;16.70;93.60;;;;;;5052530;28;20025;-26
2022/09/02 02:19:04;;;;;;;6.30;2.10;;;16.70;93.70;;;;;;5052600;28;20017;-26
2022/09/02 02:21:31;;;;;;;2.40;2.00;;;16.70;93.70;;;;;;5052577;28;20021;-26
2022/09/02 02:24:00;;;;;;;4.32;2.13;;;16.70;93.70;;;;;;5052535;28;20013;-26
2022/09/02 02:26:26;;;;;;;4.63;1.65;;;16.70;93.60;;;;;;5052472;28;20052;-25
2022/09/02 02:28:52;;;;;;;4.40;1.70;;;16.70;93.60;;;;;;5052369;28;20528;-26
2022/09/02 02:31:17;;;;;;;4.63;2.10;;;16.70;93.50;;;;;;5052410;28;20033;-26
2022/09/02 02:33:43;;;;;;;6.30;1.63;;;16.60;93.40;;;;;;5052441;28;20051;-26
2022/09/02 02:36:09;;;;;;;4.10;1.90;;;16.60;93.60;;;;;;5052249;28;20029;-26
2022/09/02 02:38:36;;;;;;;2.53;1.90;;;16.50;93.60;;;;;;5051998;28;20017;-26
2022/09/02 02:41:03;;;;;;;4.05;2.20;;;16.40;93.70;;;;;;5052141;28;20032;-26
2022/09/02 02:43:29;;;;;;;4.70;2.30;;;16.40;93.70;;;;;;5052292;28;20355;-26
2022/09/02 02:45:55;;;;;;;4.28;2.20;;;16.40;94.10;;;;;;5051802;28;20029;-26
2022/09/02 02:48:21;;;;;;;3.97;1.95;;;16.40;93.80;;;;;;5052072;28;20425;-26
2022/09/02 02:50:47;;;;;;;8.48;1.98;;;16.40;93.70;;;;;;5051938;28;20107;-26
2022/09/02 02:53:13;;;;;;;6.18;1.90;;;16.30;93.70;;;;;;5052020;28;20103;-26
2022/09/02 02:55:39;;;;;;;5.80;1.92;;;16.40;93.60;;;;;;5051876;28;20121;-26
2022/09/02 02:58:05;;;;;;;4.28;2.03;;;16.40;93.40;;;;;;5051940;28;20033;-26
2022/09/02 03:00:32;;;;;;;7.00;2.08;;;16.40;93.20;;;;;;5051862;28;20025;-26
2022/09/02 03:03:00;;;;;;;3.00;1.80;;;16.40;93.10;;;;;;5034137;28;20021;-26
2022/09/02 03:05:26;;;;;;;5.30;1.80;;;16.40;93.30;;;;;;5051833;28;20067;-26
2022/09/02 03:07:53;;;;;;;2.70;1.92;;;16.30;93.50;;;;;;5051884;28;20033;-26
2022/09/02 03:10:19;;;;;;;4.93;1.95;;;16.20;93.60;;;;;;5051791;28;20112;-26
2022/09/02 03:12:46;;;;;;;10.40;2.13;;;16.20;93.50;;;;;;5052073;28;20056;-26
2022/09/02 03:15:15;;;;;;;5.55;2.25;;;16.30;93.40;;;;;;5051772;28;20092;-26
2022/09/02 03:17:42;;;;;;;6.13;1.90;;;16.20;93.30;;;;;;5051801;28;20029;-25
2022/09/02 03:20:09;;;;;;;4.88;1.67;;;16.20;93.20;;;;;;5051482;28;20032;-25
2022/09/02 03:22:37;;;;;;;3.83;1.80;;;16.20;93.10;;;;;;5051829;28;20036;-26
2022/09/02 03:25:05;;;;;;;1.90;1.45;;;16.10;93.20;;;;;;5051940;28;20428;-26
2022/09/02 03:27:30;;;;;;;3.05;2.05;;;16.10;93.30;;;;;;5051623;28;20061;-26
2022/09/02 03:29:56;;;;;;;4.97;2.10;;;16.20;93.30;;;;;;5051594;28;20071;-26
2022/09/02 03:32:21;;;;;;;6.72;1.70;;;16.10;93.30;;;;;;5051682;28;20029;-26
2022/09/02 03:34:47;;;;;;;2.38;1.58;;;16.10;93.30;;;;;;5051559;28;20390;-26
2022/09/02 03:37:13;;;;;;;3.17;1.70;;;16.10;93.20;;;;;;5051625;28;20037;-26
2022/09/02 03:39:39;;;;;;;4.22;1.88;;;16.10;93.50;;;;;;5051516;28;20028;-26
2022/09/02 03:42:06;;;;;;;5.72;2.47;;;16.00;93.50;;;;;;5051540;28;20023;-26
2022/09/02 03:44:33;;;;;;;4.53;2.00;;;16.00;93.40;;;;;;5051620;28;20029;-26
2022/09/02 03:46:59;;;;;;;3.22;1.80;;;16.00;93.50;;;;;;5051339;28;20552;-26
2022/09/02 03:49:26;;;;;;;3.63;1.67;;;15.90;93.60;;;;;;5051345;28;20112;-26
2022/09/02 03:51:52;;;;;;;4.60;1.80;;;15.90;93.60;;;;;;5051495;28;20043;-26
2022/09/02 03:54:18;;;;;;;3.60;1.73;;;15.90;93.60;;;;;;5051450;28;20025;-25
2022/09/02 03:56:43;;;;;;;4.75;1.52;;;15.90;93.50;;;;;;5051297;28;20486;-26
2022/09/02 03:59:09;;;;;;;3.83;1.50;;;15.80;93.40;;;;;;5053543;28;20045;-26
2022/09/02 04:01:35;;;;;;;2.67;1.92;;;15.80;93.40;;;;;;5055289;28;20470;-26
2022/09/02 04:04:02;;;;;;;2.20;1.60;;;15.80;93.40;;;;;;5055211;28;20371;-25
2022/09/02 04:06:28;;;;;;;4.63;1.90;;;15.80;93.30;;;;;;5055285;28;20033;-26
2022/09/02 04:08:54;;;;;;;4.88;1.70;;;15.80;93.30;;;;;;5054989;28;20029;-26
2022/09/02 04:11:22;;;;;;;8.35;1.98;;;15.80;93.40;;;;;;5055187;28;20075;-26
2022/09/02 04:13:50;;;;;;;2.67;1.80;;;15.70;93.60;;;;;;5054972;28;20371;-25
2022/09/02 04:22:59;;;;;;;11.40;5.40;;;15.70;93.20;;;;;;5055178;28;20024;-26
2022/09/02 04:25:24;;;;;;;37.72;16.08;;;15.70;93.30;;;;;;5054827;28;20386;-25
2022/09/02 04:27:50;;;;;;;16.67;6.32;;;15.70;93.20;;;;;;5054743;28;20064;-26
2022/09/02 04:30:16;;;;;;;7.70;2.67;;;15.70;93.30;;;;;;5054538;28;20025;-26
2022/09/02 04:32:41;;;;;;;4.93;1.80;;;15.70;93.30;;;;;;5054772;28;20025;-27
2022/09/02 04:35:08;;;;;;;3.80;2.00;;;15.70;93.20;;;;;;5054464;28;20029;-26
2022/09/02 04:37:33;;;;;;;2.75;1.83;;;15.70;93.30;;;;;;5054655;28;20096;-25
2022/09/02 04:40:00;;;;;;;3.40;1.67;;;15.60;93.30;;;;;;5054419;28;20105;-27
2022/09/02 04:42:25;;;;;;;6.50;2.00;;;15.60;93.30;;;;;;5054492;28;20035;-25
2022/09/02 04:44:53;;;;;;;4.00;1.65;;;15.60;93.40;;;;;;5054620;28;20457;-25
2022/09/02 04:47:19;;;;;;;2.45;2.00;;;15.60;93.40;;;;;;5054207;28;20021;-26
2022/09/02 04:49:45;;;;;;;3.35;1.73;;;15.60;93.40;;;;;;5054129;28;20109;-26
2022/09/02 04:52:10;;;;;;;2.53;1.80;;;15.60;93.40;;;;;;5054217;28;20092;-25
2022/09/02 04:54:36;;;;;;;3.63;2.03;;;15.60;93.40;;;;;;5054306;28;20024;-27
2022/09/02 04:57:02;;;;;;;3.80;1.70;;;15.60;93.30;;;;;;5054114;28;20491;-26
2022/09/02 04:59:28;;;;;;;4.72;2.05;;;15.60;93.30;;;;;;5054052;28;20025;-26
2022/09/02 05:01:53;;;;;;;3.60;1.92;;;15.60;93.20;;;;;;5054110;28;20095;-26
2022/09/02 05:04:19;;;;;;;3.97;1.77;;;15.60;93.20;;;;;;5054017;28;20028;-26
2022/09/02 05:06:45;;;;;;;2.42;1.55;;;15.60;93.30;;;;;;5053997;28;20032;-26
2022/09/02 05:09:11;;;;;;;3.63;1.80;;;15.50;93.40;;;;;;5053816;28;20025;-26
2022/09/02 05:11:37;;;;;;;2.08;1.40;;;15.40;93.40;;;;;;5053965;28;20071;-26
2022/09/02 05:14:05;;;;;;;4.10;1.80;;;15.40;93.30;;;;;;5054001;28;20036;-25
2022/09/02 05:16:38;;;;;;;2.58;1.63;;;15.40;93.30;;;;;;5053738;28;20082;-25
2022/09/02 05:19:08;;;;;;;4.63;1.70;;;15.40;93.30;;;;;;5053654;28;20112;-26
2022/09/02 05:21:34;;;;;;;4.78;1.55;;;15.40;93.20;;;;;;5053603;28;20393;-27
2022/09/02 05:24:00;;;;;;;8.85;1.70;;;15.40;93.30;;;;;;5053773;28;20028;-26
2022/09/02 05:26:26;;;;;;;2.70;1.55;;;15.40;93.30;;;;;;5053685;28;20029;-26
2022/09/02 05:28:52;;;;;;;4.28;1.50;;;15.50;93.30;;;;;;5053595;28;20112;-26
2022/09/02 05:31:19;;;;;;;2.38;1.85;;;15.50;93.30;;;;;;5053362;28;20508;-26
2022/09/02 05:33:46;;;;;;;4.22;1.80;;;15.40;93.40;;;;;;5053827;28;20112;-26
2022/09/02 05:36:14;;;;;;;4.07;1.90;;;15.50;93.50;;;;;;5053513;28;20029;-25
2022/09/02 05:38:41;;;;;;;3.47;2.10;;;15.40;93.70;;;;;;5053174;28;20017;-26
2022/09/02 05:41:09;;;;;;;5.95;3.03;;;15.50;93.70;;;;;;5053377;28;20033;-26
2022/09/02 05:43:39;;;;;;;12.23;2.10;;;15.50;93.60;;;;;;5054127;28;20359;-25
2022/09/02 05:46:07;;;;;;;3.15;1.90;;;16.00;93.30;;;;;;5056644;28;20120;-25
2022/09/02 05:51:18;;;;;;;4.07;2.08;;;16.70;92.30;;;;;;5018644;28;20064;-24
2022/09/02 05:53:44;;;;;;;2.97;1.70;;;17.10;91.90;;;;;;5033283;28;20115;-24
2022/09/02 05:56:10;;;;;;;3.75;1.67;;;17.40;91.60;;;;;;5033161;28;20026;-24
2022/09/02 05:58:35;;;;;;;2.42;1.73;;;17.60;91.30;;;;;;5033022;28;20021;-24
2022/09/02 06:01:09;;;;;;;2.47;1.58;;;17.80;91.10;;;;;;5033087;28;20025;-23
2022/09/02 06:03:35;;;;;;;2.92;1.67;;;18.00;91.00;;;;;;5033087;28;20478;-23
2022/09/02 06:06:01;;;;;;;2.90;1.75;;;18.10;90.80;;;;;;5032929;28;20088;-23
2022/09/02 06:08:27;;;;;;;1.73;1.33;;;18.30;90.80;;;;;;5015224;28;20596;-23
2022/09/02 06:10:53;;;;;;;2.55;1.50;;;18.40;90.60;;;;;;5033067;28;20108;-23
2022/09/02 06:13:21;;;;;;;3.40;1.50;;;18.50;90.50;;;;;;5032971;28;20096;-23
2022/09/02 06:15:47;;;;;;;4.82;1.77;;;18.60;90.40;;;;;;5032875;28;20025;-24
2022/09/02 06:18:14;;;;;;;1.83;1.33;;;18.70;90.30;;;;;;5032683;28;20079;-24
2022/09/02 06:20:45;;;;;;;2.95;1.77;;;18.80;90.20;;;;;;5032215;28;20043;-24
2022/09/02 06:23:13;;;;;;;2.47;1.70;;;18.90;90.00;;;;;;5015140;28;20072;-23
2022/09/02 06:25:40;;;;;;;2.95;1.67;;;19.00;90.00;;;;;;5032691;28;20029;-23
2022/09/02 06:28:06;;;;;;;2.28;1.40;;;19.10;90.00;;;;;;5032531;28;20031;-23
2022/09/02 06:30:33;;;;;;;3.80;1.48;;;19.10;90.20;;;;;;5032373;28;20031;-23
2022/09/02 06:33:00;;;;;;;1.52;1.25;;;19.20;89.70;;;;;;5014694;28;20545;-23
2022/09/02 06:35:26;;;;;;;3.40;1.48;;;19.30;89.70;;;;;;5032481;28;20032;-23
2022/09/02 06:37:52;;;;;;;1.63;1.30;;;19.30;89.60;;;;;;5032406;28;20025;-24
2022/09/02 06:40:18;;;;;;;1.98;1.25;;;19.40;89.70;;;;;;5032329;28;20367;-23
2022/09/02 06:42:44;;;;;;;2.42;1.60;;;19.40;89.60;;;;;;5032480;28;20017;-23
2022/09/02 06:45:09;;;;;;;2.53;1.30;;;19.40;89.50;;;;;;5032374;28;20084;-23
2022/09/02 06:47:35;;;;;;;5.03;1.58;;;19.50;89.60;;;;;;5032039;28;20033;-23
2022/09/02 06:50:01;;;;;;;2.40;1.42;;;19.50;89.60;;;;;;5032246;28;20108;-23
2022/09/02 06:52:27;;;;;;;2.17;1.60;;;19.60;89.60;;;;;;5032268;28;20025;-23
2022/09/02 06:54:54;;;;;;;3.95;1.50;;;19.60;89.60;;;;;;5032190;28;20040;-23
2022/09/02 06:57:20;;;;;;;2.35;1.50;;;19.60;89.60;;;;;;5032134;28;20013;-23
2022/09/02 06:59:46;;;;;;;1.50;1.10;;;19.60;89.70;;;;;;5032054;28;20079;-24
2022/09/02 07:02:13;;;;;;;1.23;1.08;;;19.70;89.70;;;;;;5032014;28;20037;-24
2022/09/02 07:07:25;;;;;;;2.35;1.45;;;19.80;89.80;;;;;;5032467;28;20033;-23
2022/09/02 07:09:51;;;;;;;5.07;1.52;;;19.70;89.70;;;;;;5032207;28;20021;-23
2022/09/02 07:12:18;;;;;;;2.22;1.20;;;19.80;89.80;;;;;;5031988;28;20025;-23
2022/09/02 07:14:44;;;;;;;1.90;1.33;;;19.80;89.80;;;;;;5031896;28;20026;-23
2022/09/02 07:17:16;;;;;;;2.25;1.30;;;19.80;89.80;;;;;;5031904;28;20033;-23
2022/09/02 07:19:42;;;;;;;2.20;1.40;;;19.90;89.90;;;;;;5032027;28;20084;-24
2022/09/02 07:22:08;;;;;;;2.95;1.20;;;19.80;89.80;;;;;;5032168;28;20108;-23
2022/09/02 07:24:34;;;;;;;2.25;1.38;;;19.90;89.90;;;;;;5014702;28;20364;-23
2022/09/02 07:27:00;;;;;;;2.10;1.23;;;19.90;89.90;;;;;;5013982;28;20033;-23
2022/09/02 07:29:26;;;;;;;3.13;1.38;;;20.00;89.90;;;;;;5031692;28;20026;-23
2022/09/02 07:31:52;;;;;;;1.30;1.00;;;20.00;89.80;;;;;;5031834;28;20033;-23
2022/09/02 07:34:18;;;;;;;1.77;1.08;;;20.10;89.80;;;;;;5034336;28;20061;-24
2022/09/02 07:36:45;;;;;;;2.25;1.23;;;20.10;89.90;;;;;;5036281;28;20080;-23
2022/09/02 07:39:11;;;;;;;1.67;1.20;;;20.20;90.20;;;;;;5035997;28;20029;-23
2022/09/02 07:41:38;;;;;;;2.15;1.27;;;20.10;89.80;;;;;;5035611;28;20104;-23
2022/09/02 07:44:04;;;;;;;1.75;1.10;;;20.20;89.70;;;;;;5036244;28;20040;-23
2022/09/02 07:46:31;;;;;;;2.70;1.23;;;20.20;89.70;;;;;;5018650;28;20076;-23
2022/09/02 07:49:04;;;;;;;2.45;1.00;;;20.20;89.70;;;;;;5035537;28;20029;-23
2022/09/02 07:51:30;;;;;;;1.67;1.10;;;20.20;89.80;;;;;;5039038;28;20463;-23
2022/09/02 07:53:56;;;;;;;1.70;0.90;;;20.30;89.80;;;;;;5021876;28;20272;-24
2022/09/02 07:56:22;;;;;;;2.17;1.30;;;20.30;89.80;;;;;;5037607;28;20030;-23
2022/09/02 07:58:49;;;;;;;2.05;1.10;;;20.30;89.80;;;;;;5035761;28;20025;-24
2022/09/02 08:01:15;;;;;;;1.27;0.90;;;20.30;89.90;;;;;;5035843;28;20025;-24
2022/09/02 08:03:43;;;;;;;1.83;1.10;;;20.40;89.90;;;;;;5035386;28;20550;-24
2022/09/02 08:06:10;;;;;;;2.13;0.82;;;20.40;89.90;;;;;;5017595;28;20491;-23
2022/09/02 08:08:36;;;;;;;2.33;1.13;;;20.40;89.90;;;;;;5035108;28;20104;-23
2022/09/02 08:11:03;;;;;;;2.33;1.00;;;20.50;89.90;;;;;;5035118;28;20053;-23
2022/09/02 08:13:29;;;;;;;1.88;1.10;;;20.50;89.80;;;;;;5017815;28;20469;-23
2022/09/02 08:15:55;;;;;;;2.05;1.30;;;20.60;89.90;;;;;;5035331;28;20029;-23
2022/09/02 08:18:21;;;;;;;1.48;1.15;;;20.60;89.90;;;;;;5035097;28;20470;-23
2022/09/02 08:20:47;;;;;;;1.77;1.00;;;20.60;89.80;;;;;;5034894;28;20101;-23
2022/09/02 08:23:13;;;;;;;1.42;1.00;;;20.60;89.80;;;;;;5035337;28;20120;-23
2022/09/02 08:25:39;;;;;;;2.10;1.17;;;20.70;89.90;;;;;;5035015;28;20109;-23
2022/09/02 08:28:06;;;;;;;1.98;1.00;;;20.70;89.90;;;;;;5035060;28;20048;-23
2022/09/02 08:30:32;;;;;;;1.52;1.10;;;20.80;89.80;;;;;;5034795;28;20536;-23
2022/09/02 08:32:58;;;;;;;3.45;1.10;;;20.80;89.80;;;;;;5035139;28;20026;-23
2022/09/02 08:35:24;;;;;;;1.25;1.10;;;20.80;89.70;;;;;;5017122;28;20116;-23
2022/09/02 08:37:50;;;;;;;1.27;1.00;;;20.80;89.60;;;;;;5034762;28;20033;-24
2022/09/02 08:40:22;;;;;;;1.35;1.10;;;20.80;89.70;;;;;;5034525;28;20079;-23
2022/09/02 08:42:52;;;;;;;1.20;0.90;;;20.80;89.70;;;;;;5034797;28;20049;-23
2022/09/02 08:45:31;;;;;;;1.05;0.95;;;20.90;89.70;;;;;;5034591;28;20032;-23
2022/09/02 08:48:11;;;;;;;2.25;1.00;;;21.00;89.80;;;;;;5034287;28;20454;-23
2022/09/02 08:50:40;;;;;;;1.52;0.90;;;21.00;89.70;;;;;;5034409;28;20086;-23
2022/09/02 08:53:31;;;;;;;1.20;0.80;;;21.00;89.60;;;;;;5034535;28;20368;-24
2022/09/02 08:56:00;;;;;;;1.33;0.90;;;21.00;89.60;;;;;;5034448;28;20036;-23
2022/09/02 08:58:38;;;;;;;2.40;0.90;;;21.00;89.60;;;;;;5016505;28;20071;-23
2022/09/02 09:01:41;;;;;;;1.77;1.00;;;21.00;89.60;;;;;;5034736;28;20018;-23
2022/09/02 09:04:26;;;;;;;1.50;1.00;;;21.10;89.70;;;;;;5034364;28;20028;-24
2022/09/02 09:07:22;;;;;;;1.67;1.10;;;21.00;89.70;;;;;;5034132;28;20434;-23
2022/09/02 09:09:54;;;;;;;1.33;0.90;;;21.10;89.70;;;;;;5034247;28;20029;-23
2022/09/02 09:12:50;;;;;;;1.10;0.80;;;21.10;89.60;;;;;;5034071;28;20029;-23
2022/09/02 09:15:37;;;;;;;1.10;0.82;;;21.10;89.60;;;;;;5033981;28;20100;-23
2022/09/02 09:18:07;;;;;;;1.42;0.75;;;21.10;89.60;;;;;;5033944;28;20030;-24
2022/09/02 09:20:43;;;;;;;0.90;0.70;;;21.20;89.70;;;;;;5033982;28;20517;-24
2022/09/02 09:23:32;;;;;;;0.88;0.80;;;21.20;89.70;;;;;;5034076;28;20048;-24
2022/09/02 09:26:26;;;;;;;1.42;1.00;;;21.20;89.70;;;;;;5033778;28;20479;-23
2022/09/02 09:28:54;;;;;;;1.25;0.90;;;21.20;89.70;;;;;;5033941;28;20030;-24
2022/09/02 09:31:29;;;;;;;1.35;0.93;;;21.30;89.80;;;;;;5034195;28;20025;-23
2022/09/02 09:33:56;;;;;;;1.23;0.85;;;21.20;89.70;;;;;;5033774;28;20025;-23
2022/09/02 09:36:43;;;;;;;1.60;0.77;;;21.30;89.80;;;;;;5033498;28;20490;-24
2022/09/02 09:39:26;;;;;;;2.35;1.20;;;21.30;89.70;;;;;;5033444;28;20449;-24
2022/09/02 09:41:54;;;;;;;1.10;0.93;;;21.30;89.60;;;;;;5016178;28;20021;-24
2022/09/02 09:44:45;;;;;;;1.15;0.70;;;21.30;89.70;;;;;;5033513;28;20013;-24
2022/09/02 09:47:21;;;;;;;3.20;0.80;;;21.40;89.70;;;;;;5033263;28;20064;-24
2022/09/02 09:50:10;;;;;;;1.45;1.00;;;21.40;89.70;;;;;;5015585;28;20033;-24
2022/09/02 09:52:36;;;;;;;1.67;0.82;;;21.40;89.70;;;;;;5033821;28;20040;-24
2022/09/02 09:55:10;;;;;;;1.38;0.80;;;21.40;89.70;;;;;;5033152;28;20033;-23
2022/09/02 09:57:37;;;;;;;1.45;0.82;;;21.40;89.70;;;;;;5032503;28;20482;-24
2022/09/02 10:00:17;;;;;;;1.90;1.00;;;21.40;89.70;;;;;;5033079;28;20518;-24
2022/09/02 10:02:53;;;;;;;1.20;0.90;;;21.40;89.70;;;;;;5033208;28;20025;-23
2022/09/02 10:05:27;;;;;;;1.13;0.80;;;21.50;89.70;;;;;;5033138;28;20117;-23
2022/09/02 10:07:58;;;;;;;1.33;0.93;;;21.50;89.70;;;;;;5033235;28;20030;-23
2022/09/02 10:10:26;;;;;;;1.08;0.80;;;21.50;89.60;;;;;;5032879;28;20030;-23
2022/09/02 10:12:56;;;;;;;1.88;1.05;;;21.50;89.60;;;;;;5033105;28;20064;-23
2022/09/02 10:15:35;;;;;;;1.45;0.80;;;21.60;89.60;;;;;;5033197;28;20482;-23
2022/09/02 10:18:27;;;;;;;1.10;0.70;;;21.60;89.60;;;;;;5032692;28;20022;-23
2022/09/02 10:21:30;;;;;;;1.08;0.88;;;21.60;89.60;;;;;;5032841;28;20470;-23
2022/09/02 10:24:05;;;;;;;1.38;0.75;;;21.60;89.50;;;;;;5032846;28;20075;-23
2022/09/02 10:26:47;;;;;;;1.00;0.70;;;21.60;89.50;;;;;;5032716;28;20025;-24
2022/09/02 10:29:50;;;;;;;1.63;0.73;;;21.70;89.40;;;;;;5033052;28;20087;-23
2022/09/02 10:32:32;;;;;;;1.10;0.90;;;21.70;89.50;;;;;;5032607;28;20044;-23
2022/09/02 10:35:07;;;;;;;1.77;1.00;;;21.80;89.40;;;;;;5032878;28;20029;-23
2022/09/02 10:37:54;;;;;;;2.97;0.82;;;21.80;89.40;;;;;;5032843;28;20024;-23
2022/09/02 10:40:26;;;;;;;1.23;0.77;;;21.80;89.20;;;;;;5033041;28;20348;-23
2022/09/02 10:43:04;;;;;;;1.45;0.80;;;21.80;89.20;;;;;;5032243;28;20025;-23
2022/09/02 10:45:36;;;;;;;1.30;0.90;;;21.80;89.20;;;;;;5032378;28;20056;-23
2022/09/02 10:48:28;;;;;;;0.98;0.70;;;21.80;89.20;;;;;;5032186;28;20029;-23
2022/09/02 10:51:09;;;;;;;2.83;1.00;;;21.90;89.30;;;;;;5032261;28;20080;-23
2022/09/02 10:53:54;;;;;;;2.15;0.90;;;21.90;89.90;;;;;;5032096;28;20033;-23
2022/09/02 10:56:25;;;;;;;1.40;0.80;;;21.90;89.10;;;;;;5032188;28;20040;-23
2022/09/02 10:59:12;;;;;;;1.98;0.80;;;21.90;89.10;;;;;;5031957;28;20088;-23
2022/09/02 11:02:06;;;;;;;1.73;0.75;;;21.90;89.00;;;;;;5032022;28;20029;-23
2022/09/02 11:04:50;;;;;;;1.55;0.82;;;21.90;88.90;;;;;;5032477;28;20022;-23
2022/09/02 11:07:22;;;;;;;1.00;0.80;;;22.00;89.00;;;;;;5014547;28;20395;-24
2022/09/02 11:09:59;;;;;;;1.42;0.70;;;22.00;89.00;;;;;;5014237;28;20067;-23
2022/09/02 11:12:33;;;;;;;0.98;0.68;;;22.00;88.90;;;;;;5032052;28;20088;-23
2022/09/02 11:15:08;;;;;;;1.05;0.68;;;22.00;88.80;;;;;;5032642;28;20372;-23
2022/09/02 11:17:41;;;;;;;0.82;0.63;;;22.10;88.90;;;;;;5035734;28;20022;-23
2022/09/02 11:20:25;;;;;;;0.80;0.70;;;22.10;88.80;;;;;;5032924;28;20017;-23
2022/09/02 11:23:09;;;;;;;1.05;0.73;;;22.10;88.80;;;;;;5032332;28;20029;-24
2022/09/02 11:25:43;;;;;;;0.98;0.70;;;22.10;88.70;;;;;;5032255;28;20032;-23
2022/09/02 11:28:27;;;;;;;1.50;0.75;;;22.10;88.60;;;;;;5031959;28;20037;-24
2022/09/02 11:31:05;;;;;;;1.10;0.70;;;22.20;88.60;;;;;;5031687;28;20466;-24
2022/09/02 11:33:43;;;;;;;1.63;0.77;;;22.20;88.50;;;;;;5031994;28;20429;-24
2022/09/02 11:36:10;;;;;;;1.75;0.70;;;22.20;88.50;;;;;;5031916;28;20050;-24
2022/09/02 11:38:42;;;;;;;3.22;0.80;;;22.20;88.40;;;;;;5014709;28;20092;-23
2022/09/02 11:41:47;;;;;;;2.40;0.75;;;22.20;88.30;;;;;;5032304;28;20458;-23
2022/09/02 11:44:30;;;;;;;0.80;0.60;;;22.20;88.30;;;;;;5031786;28;20041;-23
2022/09/02 11:47:06;;;;;;;1.23;0.80;;;22.20;88.30;;;;;;5032053;28;20135;-23
2022/09/02 11:49:50;;;;;;;0.90;0.80;;;22.30;88.40;;;;;;5054010;22;20080;-26
2022/09/02 11:52:28;;;;;;;1.42;0.80;;;22.30;88.40;;;;;;5031588;28;20067;-25
2022/09/02 11:55:15;;;;;;;1.30;0.70;;;22.30;88.40;;;;;;5031688;28;20179;-25
2022/09/02 11:57:42;;;;;;;1.13;0.70;;;22.30;88.30;;;;;;5018610;28;20045;-26
2022/09/02 12:00:23;;;;;;;1.15;0.70;;;22.30;88.20;;;;;;5031274;28;20478;-25
2022/09/02 12:02:55;;;;;;;0.85;0.70;;;22.30;88.20;;;;;;5031615;28;20389;-26
2022/09/02 12:05:30;;;;;;;1.50;0.77;;;22.40;88.10;;;;;;5031739;28;20092;-26
2022/09/02 12:08:03;;;;;;;1.92;0.70;;;22.40;88.10;;;;;;5031461;28;20060;-26
2022/09/02 12:10:45;;;;;;;1.70;0.80;;;22.40;88.00;;;;;;5031218;28;20018;-26
2022/09/02 12:13:36;;;;;;;1.75;0.88;;;22.40;88.00;;;;;;5031472;28;20022;-25
2022/09/02 12:16:22;;;;;;;1.05;0.68;;;22.40;88.00;;;;;;5031410;28;20026;-25
2022/09/02 12:18:54;;;;;;;1.20;0.70;;;22.40;88.00;;;;;;5031388;28;20055;-25
2022/09/02 12:21:24;;;;;;;1.65;0.68;;;22.50;88.00;;;;;;5035003;28;20036;-25
2022/09/02 12:23:51;;;;;;;1.08;0.73;;;22.50;88.00;;;;;;5035134;28;20049;-25
2022/09/02 12:26:37;;;;;;;1.73;0.65;;;22.50;87.90;;;;;;5034962;28;20053;-26
2022/09/02 12:29:17;;;;;;;1.23;0.70;;;22.50;87.90;;;;;;5020379;28;20125;-26
2022/09/02 12:31:44;;;;;;;0.88;0.70;;;22.50;87.90;;;;;;5035078;28;20075;-26
2022/09/02 12:34:24;;;;;;;1.42;0.60;;;22.60;88.00;;;;;;5034878;28;20421;-25
2022/09/02 12:36:58;;;;;;;0.82;0.60;;;22.50;87.80;;;;;;5034759;28;20414;-26
2022/09/02 12:42:20;;;;;;;0.40;0.40;;;22.60;87.80;;;;;;5034459;28;20119;-26
2022/09/02 12:45:12;;;;;;;0.98;0.68;;;22.60;87.80;;;;;;5026785;28;20037;-26
2022/09/02 12:47:40;;;;;;;0.90;0.70;;;22.60;87.80;;;;;;5006243;28;20033;-26
2022/09/02 12:50:26;;;;;;;1.17;0.75;;;22.60;87.80;;;;;;5034188;28;20029;-25
2022/09/02 12:53:19;;;;;;;0.80;0.52;;;22.60;87.80;;;;;;5034517;28;20025;-26
2022/09/02 12:56:07;;;;;;;1.10;0.60;;;22.60;87.80;;;;;;5034375;28;20498;-25
2022/09/02 12:58:44;;;;;;;0.88;0.60;;;22.60;87.70;;;;;;5034026;28;20434;-25
2022/09/02 13:01:12;;;;;;;0.82;0.70;;;22.60;87.80;;;;;;5034330;28;20025;-26
2022/09/02 13:04:03;;;;;;;0.80;0.60;;;22.60;87.70;;;;;;5034297;28;20378;-26
2022/09/02 13:06:37;;;;;;;0.80;0.60;;;22.70;87.80;;;;;;5034226;28;20502;-26
2022/09/02 13:09:28;;;;;;;0.85;0.60;;;22.60;87.60;;;;;;5033896;28;20021;-26
2022/09/02 13:12:21;;;;;;;0.90;0.50;;;22.70;87.50;;;;;;5034098;28;20083;-25
2022/09/02 13:15:06;;;;;;;2.13;0.75;;;22.70;87.50;;;;;;5034111;28;20029;-26
2022/09/02 13:17:57;;;;;;;;;;;22.70;87.60;;;;;;5034353;28;20045;-25
2022/09/02 13:20:45;;;;;;;1.05;0.60;;;22.70;87.70;;;;;;5033910;28;20282;-25
2022/09/02 13:23:28;;;;;;;1.27;0.70;;;22.70;88.40;;;;;;5033890;28;20029;-26